sensor_id;sensor_type;location;lat;lon;timestamp;pressure;altitude;pressure_sealevel;temperature;humidity
44385;BME280;30101;32.778;34.994;2022-12-07T00:00:23;97932.28;;;14.63;73.16
44385;BME280;30101;32.778;34.994;2022-12-07T00:05:26;97938.94;;;14.60;72.59
44385;BME280;30101;32.778;34.994;2022-12-07T00:10:29;97932.97;;;14.58;72.84
44385;BME280;30101;32.778;34.994;2022-12-07T00:15:33;97933.81;;;14.59;72.74
44385;BME280;30101;32.778;34.994;2022-12-07T00:20:37;97933.56;;;14.60;72.88
44385;BME280;30101;32.778;34.994;2022-12-07T00:25:41;97941.38;;;14.62;72.90
44385;BME280;30101;32.778;34.994;2022-12-07T00:30:44;97945.13;;;14.61;72.96
44385;BME280;30101;32.778;34.994;2022-12-07T00:35:55;97939.75;;;14.61;73.22
44385;BME280;30101;32.778;34.994;2022-12-07T00:41:03;97948.63;;;14.61;73.40
44385;BME280;30101;32.778;34.994;2022-12-07T00:46:07;97948.88;;;14.60;73.29
44385;BME280;30101;32.778;34.994;2022-12-07T00:51:12;97946.41;;;14.58;73.16
44385;BME280;30101;32.778;34.994;2022-12-07T00:56:19;97953.63;;;14.57;73.22
44385;BME280;30101;32.778;34.994;2022-12-07T01:01:24;97955.16;;;14.53;73.22
44385;BME280;30101;32.778;34.994;2022-12-07T01:06:32;97958.69;;;14.54;73.47
44385;BME280;30101;32.778;34.994;2022-12-07T01:11:36;97954.69;;;14.56;73.57
44385;BME280;30101;32.778;34.994;2022-12-07T01:16:39;97956.13;;;14.59;73.14
44385;BME280;30101;32.778;34.994;2022-12-07T01:21:43;97948.06;;;14.59;73.54
44385;BME280;30101;32.778;34.994;2022-12-07T01:26:49;97943.50;;;14.60;73.38
44385;BME280;30101;32.778;34.994;2022-12-07T01:31:52;97941.97;;;14.64;73.31
44385;BME280;30101;32.778;34.994;2022-12-07T01:36:55;97942.78;;;14.64;73.11
44385;BME280;30101;32.778;34.994;2022-12-07T01:41:58;97934.72;;;14.64;72.73
44385;BME280;30101;32.778;34.994;2022-12-07T01:47:03;97937.41;;;14.64;73.09
44385;BME280;30101;32.778;34.994;2022-12-07T01:52:25;97931.00;;;14.65;73.44
44385;BME280;30101;32.778;34.994;2022-12-07T01:57:31;97925.97;;;14.69;73.53
44385;BME280;30101;32.778;34.994;2022-12-07T02:02:54;97929.03;;;14.72;73.15
44385;BME280;30101;32.778;34.994;2022-12-07T02:07:59;97935.56;;;14.76;73.34
44385;BME280;30101;32.778;34.994;2022-12-07T02:24:09;97938.13;;;14.83;73.46
44385;BME280;30101;32.778;34.994;2022-12-07T02:29:25;97936.06;;;14.85;73.51
44385;BME280;30101;32.778;34.994;2022-12-07T02:34:49;97928.81;;;14.86;73.58
44385;BME280;30101;32.778;34.994;2022-12-07T02:39:59;97939.31;;;14.87;73.31
44385;BME280;30101;32.778;34.994;2022-12-07T02:45:08;97935.81;;;14.87;73.86
44385;BME280;30101;32.778;34.994;2022-12-07T02:50:14;97934.19;;;14.86;73.81
44385;BME280;30101;32.778;34.994;2022-12-07T02:55:19;97935.44;;;14.83;73.48
44385;BME280;30101;32.778;34.994;2022-12-07T03:00:25;97942.81;;;14.88;73.61
44385;BME280;30101;32.778;34.994;2022-12-07T03:11:00;97943.66;;;15.00;73.52
44385;BME280;30101;32.778;34.994;2022-12-07T03:16:28;97944.47;;;15.00;72.96
44385;BME280;30101;32.778;34.994;2022-12-07T03:21:38;97946.22;;;14.95;73.23
44385;BME280;30101;32.778;34.994;2022-12-07T03:26:47;97955.47;;;14.99;73.38
44385;BME280;30101;32.778;34.994;2022-12-07T03:32:01;97956.50;;;14.98;73.61
44385;BME280;30101;32.778;34.994;2022-12-07T03:37:23;97964.22;;;15.06;72.99
44385;BME280;30101;32.778;34.994;2022-12-07T03:42:29;97960.97;;;15.16;73.02
44385;BME280;30101;32.778;34.994;2022-12-07T03:47:56;97965.88;;;15.19;73.10
44385;BME280;30101;32.778;34.994;2022-12-07T03:53:27;97962.84;;;15.15;72.96
44385;BME280;30101;32.778;34.994;2022-12-07T03:58:33;97968.66;;;15.12;73.52
44385;BME280;30101;32.778;34.994;2022-12-07T04:03:37;97976.38;;;15.20;73.06
44385;BME280;30101;32.778;34.994;2022-12-07T04:08:41;97978.50;;;15.30;72.68
44385;BME280;30101;32.778;34.994;2022-12-07T04:13:44;97974.88;;;15.36;72.83
44385;BME280;30101;32.778;34.994;2022-12-07T04:18:47;97984.13;;;15.40;72.93
44385;BME280;30101;32.778;34.994;2022-12-07T04:23:51;97999.19;;;15.41;72.68
44385;BME280;30101;32.778;34.994;2022-12-07T04:28:54;98003.97;;;15.39;72.56
44385;BME280;30101;32.778;34.994;2022-12-07T04:33:57;98002.00;;;15.34;72.63
44385;BME280;30101;32.778;34.994;2022-12-07T04:39:01;98008.31;;;15.28;72.47
44385;BME280;30101;32.778;34.994;2022-12-07T04:44:04;98009.38;;;15.27;72.91
44385;BME280;30101;32.778;34.994;2022-12-07T04:49:08;98008.09;;;15.30;72.79
44385;BME280;30101;32.778;34.994;2022-12-07T04:54:13;98012.41;;;15.31;72.58
44385;BME280;30101;32.778;34.994;2022-12-07T04:59:17;98014.75;;;15.27;72.87
44385;BME280;30101;32.778;34.994;2022-12-07T05:04:20;98005.75;;;15.22;73.04
44385;BME280;30101;32.778;34.994;2022-12-07T05:09:24;98011.22;;;15.27;72.82
44385;BME280;30101;32.778;34.994;2022-12-07T05:14:27;98017.22;;;15.29;72.58
44385;BME280;30101;32.778;34.994;2022-12-07T05:19:30;98015.47;;;15.34;72.79
44385;BME280;30101;32.778;34.994;2022-12-07T05:24:34;98020.38;;;15.37;72.34
44385;BME280;30101;32.778;34.994;2022-12-07T05:29:37;98018.97;;;15.35;72.46
44385;BME280;30101;32.778;34.994;2022-12-07T05:34:41;98018.38;;;15.33;72.66
44385;BME280;30101;32.778;34.994;2022-12-07T05:39:45;98021.19;;;15.38;72.44
44385;BME280;30101;32.778;34.994;2022-12-07T05:44:48;98019.31;;;15.38;72.05
44385;BME280;30101;32.778;34.994;2022-12-07T05:49:51;98013.72;;;15.40;72.41
44385;BME280;30101;32.778;34.994;2022-12-07T05:54:55;98022.34;;;15.42;72.34
44385;BME280;30101;32.778;34.994;2022-12-07T05:59:59;98029.94;;;15.45;72.27
44385;BME280;30101;32.778;34.994;2022-12-07T06:05:05;98035.56;;;15.55;72.45
44385;BME280;30101;32.778;34.994;2022-12-07T06:10:09;98034.91;;;15.72;71.87
44385;BME280;30101;32.778;34.994;2022-12-07T06:15:13;98044.94;;;15.88;71.51
44385;BME280;30101;32.778;34.994;2022-12-07T06:20:17;98034.63;;;15.97;71.50
44385;BME280;30101;32.778;34.994;2022-12-07T06:25:20;98033.31;;;15.99;71.15
44385;BME280;30101;32.778;34.994;2022-12-07T06:30:24;98044.53;;;15.96;71.30
44385;BME280;30101;32.778;34.994;2022-12-07T06:35:27;98030.75;;;15.93;71.52
44385;BME280;30101;32.778;34.994;2022-12-07T06:40:30;98042.22;;;16.00;71.60
44385;BME280;30101;32.778;34.994;2022-12-07T06:45:34;98042.19;;;16.11;71.29
44385;BME280;30101;32.778;34.994;2022-12-07T06:50:37;98047.66;;;16.28;71.21
44385;BME280;30101;32.778;34.994;2022-12-07T06:55:42;98057.75;;;16.50;71.06
44385;BME280;30101;32.778;34.994;2022-12-07T07:00:48;98051.00;;;16.76;70.90
44385;BME280;30101;32.778;34.994;2022-12-07T07:05:52;98059.94;;;16.93;70.47
44385;BME280;30101;32.778;34.994;2022-12-07T07:10:57;98064.03;;;17.12;70.13
44385;BME280;30101;32.778;34.994;2022-12-07T07:16:00;98053.66;;;17.38;69.69
44385;BME280;30101;32.778;34.994;2022-12-07T07:21:04;98051.97;;;17.70;69.13
44385;BME280;30101;32.778;34.994;2022-12-07T07:26:08;98056.63;;;18.14;68.25
44385;BME280;30101;32.778;34.994;2022-12-07T07:31:11;98067.34;;;18.52;67.19
44385;BME280;30101;32.778;34.994;2022-12-07T07:36:14;98057.09;;;18.76;66.50
44385;BME280;30101;32.778;34.994;2022-12-07T07:41:18;98057.97;;;18.82;66.70
44385;BME280;30101;32.778;34.994;2022-12-07T07:46:21;98064.91;;;18.73;66.26
44385;BME280;30101;32.778;34.994;2022-12-07T07:51:25;98069.25;;;18.52;66.66
44385;BME280;30101;32.778;34.994;2022-12-07T07:56:29;98062.41;;;18.44;66.67
44385;BME280;30101;32.778;34.994;2022-12-07T08:01:32;98059.69;;;18.44;66.61
44385;BME280;30101;32.778;34.994;2022-12-07T08:06:36;98048.94;;;18.71;66.09
44385;BME280;30101;32.778;34.994;2022-12-07T08:11:39;98055.22;;;19.09;65.13
44385;BME280;30101;32.778;34.994;2022-12-07T08:16:43;98047.28;;;19.29;64.91
44385;BME280;30101;32.778;34.994;2022-12-07T08:21:46;98049.16;;;19.29;64.61
44385;BME280;30101;32.778;34.994;2022-12-07T08:26:49;98041.56;;;19.26;64.62
44385;BME280;30101;32.778;34.994;2022-12-07T08:31:53;98037.47;;;19.23;64.25
44385;BME280;30101;32.778;34.994;2022-12-07T08:36:57;98031.88;;;19.35;63.72
44385;BME280;30101;32.778;34.994;2022-12-07T08:42:00;98022.50;;;19.43;63.59
44385;BME280;30101;32.778;34.994;2022-12-07T08:47:05;98015.28;;;19.58;63.08
44385;BME280;30101;32.778;34.994;2022-12-07T08:52:09;98025.19;;;19.85;62.44
44385;BME280;30101;32.778;34.994;2022-12-07T08:57:12;98018.47;;;19.98;61.92
44385;BME280;30101;32.778;34.994;2022-12-07T09:02:16;98015.25;;;20.01;61.50
44385;BME280;30101;32.778;34.994;2022-12-07T09:07:19;98017.09;;;19.90;61.57
44385;BME280;30101;32.778;34.994;2022-12-07T09:12:23;98009.44;;;19.77;61.68
44385;BME280;30101;32.778;34.994;2022-12-07T09:17:26;97996.91;;;19.65;61.46
44385;BME280;30101;32.778;34.994;2022-12-07T09:22:31;97993.22;;;19.39;61.85
44385;BME280;30101;32.778;34.994;2022-12-07T09:27:34;97982.16;;;19.09;62.65
44385;BME280;30101;32.778;34.994;2022-12-07T09:32:38;97981.31;;;19.03;62.90
44385;BME280;30101;32.778;34.994;2022-12-07T09:37:41;97997.38;;;19.15;62.74
44385;BME280;30101;32.778;34.994;2022-12-07T09:42:48;97980.34;;;19.20;62.48
44385;BME280;30101;32.778;34.994;2022-12-07T09:47:53;97978.22;;;19.27;62.44
44385;BME280;30101;32.778;34.994;2022-12-07T09:53:09;97970.91;;;19.27;62.62
44385;BME280;30101;32.778;34.994;2022-12-07T09:58:27;97969.75;;;19.55;62.05
44385;BME280;30101;32.778;34.994;2022-12-07T10:03:31;97965.97;;;19.56;62.02
44385;BME280;30101;32.778;34.994;2022-12-07T10:08:34;97961.41;;;19.62;62.12
44385;BME280;30101;32.778;34.994;2022-12-07T10:18:42;97954.94;;;19.73;62.02
44385;BME280;30101;32.778;34.994;2022-12-07T10:24:14;97954.50;;;19.86;61.94
44385;BME280;30101;32.778;34.994;2022-12-07T10:29:24;97949.28;;;19.75;62.13
44385;BME280;30101;32.778;34.994;2022-12-07T10:34:37;97950.53;;;19.57;62.39
44385;BME280;30101;32.778;34.994;2022-12-07T10:39:52;97942.38;;;19.52;62.32
44385;BME280;30101;32.778;34.994;2022-12-07T10:45:16;97939.75;;;19.62;62.25
44385;BME280;30101;32.778;34.994;2022-12-07T11:06:58;97929.91;;;19.51;62.13
44385;BME280;30101;32.778;34.994;2022-12-07T11:12:11;97928.25;;;19.45;62.18
44385;BME280;30101;32.778;34.994;2022-12-07T11:17:42;97914.41;;;19.36;62.16
44385;BME280;30101;32.778;34.994;2022-12-07T11:38:47;97918.16;;;19.35;62.30
44385;BME280;30101;32.778;34.994;2022-12-07T11:44:06;97930.59;;;19.26;62.38
44385;BME280;30101;32.778;34.994;2022-12-07T11:49:19;97932.13;;;19.17;62.38
44385;BME280;30101;32.778;34.994;2022-12-07T11:54:31;97932.41;;;19.15;62.46
44385;BME280;30101;32.778;34.994;2022-12-07T11:59:47;97930.16;;;19.02;62.84
44385;BME280;30101;32.778;34.994;2022-12-07T12:05:22;97934.16;;;18.94;62.71
44385;BME280;30101;32.778;34.994;2022-12-07T12:10:54;97930.81;;;18.82;62.81
44385;BME280;30101;32.778;34.994;2022-12-07T12:16:52;97931.81;;;18.71;63.00
44385;BME280;30101;32.778;34.994;2022-12-07T12:21:45;97931.19;;;18.64;63.40
44385;BME280;30101;32.778;34.994;2022-12-07T12:27:04;97936.03;;;18.62;63.27
44385;BME280;30101;32.778;34.994;2022-12-07T12:53:15;97930.91;;;18.33;64.15
44385;BME280;30101;32.778;34.994;2022-12-07T13:03:27;97928.66;;;18.25;64.26
44385;BME280;30101;32.778;34.994;2022-12-07T13:08:32;97925.91;;;18.20;64.17
44385;BME280;30101;32.778;34.994;2022-12-07T13:13:37;97925.41;;;18.23;64.18
44385;BME280;30101;32.778;34.994;2022-12-07T13:18:41;97920.00;;;18.23;64.26
44385;BME280;30101;32.778;34.994;2022-12-07T13:29:14;97928.34;;;18.21;64.31
44385;BME280;30101;32.778;34.994;2022-12-07T13:34:37;97918.31;;;18.17;64.51
44385;BME280;30101;32.778;34.994;2022-12-07T13:39:49;97933.66;;;18.11;64.76
44385;BME280;30101;32.778;34.994;2022-12-07T13:44:56;97924.28;;;17.97;64.80
44385;BME280;30101;32.778;34.994;2022-12-07T13:50:01;97923.31;;;17.81;65.08
44385;BME280;30101;32.778;34.994;2022-12-07T14:00:29;97934.25;;;17.52;65.67
44385;BME280;30101;32.778;34.994;2022-12-07T14:05:34;97934.97;;;17.43;66.34
44385;BME280;30101;32.778;34.994;2022-12-07T14:10:54;97931.13;;;17.39;66.30
44385;BME280;30101;32.778;34.994;2022-12-07T14:15:59;97947.81;;;17.36;66.31
44385;BME280;30101;32.778;34.994;2022-12-07T14:21:15;97938.06;;;17.35;66.73
44385;BME280;30101;32.778;34.994;2022-12-07T14:26:20;97929.66;;;17.31;66.66
44385;BME280;30101;32.778;34.994;2022-12-07T14:31:24;97937.13;;;17.24;67.12
44385;BME280;30101;32.778;34.994;2022-12-07T14:36:32;97939.19;;;17.17;67.39
44385;BME280;30101;32.778;34.994;2022-12-07T14:41:36;97938.22;;;17.06;67.62
44385;BME280;30101;32.778;34.994;2022-12-07T14:46:40;97930.03;;;17.01;67.68
44385;BME280;30101;32.778;34.994;2022-12-07T14:51:46;97930.22;;;16.94;67.68
44385;BME280;30101;32.778;34.994;2022-12-07T14:57:10;97930.38;;;16.88;67.95
44385;BME280;30101;32.778;34.994;2022-12-07T15:02:15;97932.44;;;16.81;68.28
44385;BME280;30101;32.778;34.994;2022-12-07T15:07:20;97930.97;;;16.73;68.26
44385;BME280;30101;32.778;34.994;2022-12-07T15:12:23;97936.25;;;16.68;68.23
44385;BME280;30101;32.778;34.994;2022-12-07T15:17:27;97940.38;;;16.59;68.63
44385;BME280;30101;32.778;34.994;2022-12-07T15:22:35;97946.75;;;16.53;68.54
44385;BME280;30101;32.778;34.994;2022-12-07T15:27:41;97943.75;;;16.49;68.90
44385;BME280;30101;32.778;34.994;2022-12-07T15:32:49;97949.84;;;16.44;69.04
44385;BME280;30101;32.778;34.994;2022-12-07T15:37:53;97951.63;;;16.39;68.92
44385;BME280;30101;32.778;34.994;2022-12-07T15:42:56;97946.75;;;16.36;68.83
44385;BME280;30101;32.778;34.994;2022-12-07T15:48:00;97958.34;;;16.36;69.00
44385;BME280;30101;32.778;34.994;2022-12-07T15:53:23;97955.41;;;16.38;69.09
44385;BME280;30101;32.778;34.994;2022-12-07T15:58:28;97958.19;;;16.43;68.91
44385;BME280;30101;32.778;34.994;2022-12-07T16:03:35;97971.41;;;16.44;69.21
44385;BME280;30101;32.778;34.994;2022-12-07T16:08:43;97970.59;;;16.44;69.15
44385;BME280;30101;32.778;34.994;2022-12-07T16:13:47;97973.28;;;16.44;69.18
44385;BME280;30101;32.778;34.994;2022-12-07T16:18:50;97972.47;;;16.43;69.34
44385;BME280;30101;32.778;34.994;2022-12-07T16:23:56;97974.59;;;16.41;69.43
44385;BME280;30101;32.778;34.994;2022-12-07T16:29:00;97977.78;;;16.38;69.60
44385;BME280;30101;32.778;34.994;2022-12-07T16:34:03;97986.81;;;16.32;69.49
44385;BME280;30101;32.778;34.994;2022-12-07T16:39:08;97979.94;;;16.25;69.58
44385;BME280;30101;32.778;34.994;2022-12-07T16:44:13;97985.22;;;16.19;69.76
44385;BME280;30101;32.778;34.994;2022-12-07T16:49:17;97981.63;;;16.14;69.60
44385;BME280;30101;32.778;34.994;2022-12-07T16:54:20;97982.56;;;16.08;69.92
44385;BME280;30101;32.778;34.994;2022-12-07T16:59:24;97969.59;;;16.05;69.94
44385;BME280;30101;32.778;34.994;2022-12-07T17:04:28;97973.00;;;16.00;70.06
44385;BME280;30101;32.778;34.994;2022-12-07T17:09:31;97979.78;;;16.03;70.07
44385;BME280;30101;32.778;34.994;2022-12-07T17:14:35;97979.31;;;16.06;69.98
44385;BME280;30101;32.778;34.994;2022-12-07T17:19:38;97984.22;;;16.09;70.06
44385;BME280;30101;32.778;34.994;2022-12-07T17:24:41;97985.38;;;16.13;69.53
44385;BME280;30101;32.778;34.994;2022-12-07T17:29:45;97984.09;;;16.15;69.52
44385;BME280;30101;32.778;34.994;2022-12-07T17:34:49;97987.09;;;16.19;69.61
44385;BME280;30101;32.778;34.994;2022-12-07T17:39:52;97990.38;;;16.21;69.34
44385;BME280;30101;32.778;34.994;2022-12-07T17:44:56;97985.09;;;16.26;68.87
44385;BME280;30101;32.778;34.994;2022-12-07T17:49:59;97985.69;;;16.28;68.85
44385;BME280;30101;32.778;34.994;2022-12-07T17:55:09;97988.69;;;16.32;68.38
44385;BME280;30101;32.778;34.994;2022-12-07T18:00:12;97985.84;;;16.38;68.65
44385;BME280;30101;32.778;34.994;2022-12-07T18:05:16;97990.78;;;16.41;68.57
44385;BME280;30101;32.778;34.994;2022-12-07T18:10:19;97993.47;;;16.41;68.43
44385;BME280;30101;32.778;34.994;2022-12-07T18:15:23;97997.19;;;16.40;68.73
44385;BME280;30101;32.778;34.994;2022-12-07T18:20:26;97993.94;;;16.38;68.66
44385;BME280;30101;32.778;34.994;2022-12-07T18:25:31;97995.25;;;16.36;68.85
44385;BME280;30101;32.778;34.994;2022-12-07T18:30:34;97997.34;;;16.34;68.97
44385;BME280;30101;32.778;34.994;2022-12-07T18:35:59;97994.66;;;16.34;69.28
44385;BME280;30101;32.778;34.994;2022-12-07T18:41:06;97994.44;;;16.35;68.81
44385;BME280;30101;32.778;34.994;2022-12-07T18:46:14;98001.44;;;16.36;69.02
44385;BME280;30101;32.778;34.994;2022-12-07T18:51:19;97996.88;;;16.37;69.07
44385;BME280;30101;32.778;34.994;2022-12-07T18:56:23;97989.63;;;16.37;68.94
44385;BME280;30101;32.778;34.994;2022-12-07T19:01:28;97990.19;;;16.39;68.67
44385;BME280;30101;32.778;34.994;2022-12-07T19:06:32;97993.13;;;16.38;68.62
44385;BME280;30101;32.778;34.994;2022-12-07T19:11:37;97995.25;;;16.36;68.60
44385;BME280;30101;32.778;34.994;2022-12-07T19:16:41;97995.25;;;16.36;68.75
44385;BME280;30101;32.778;34.994;2022-12-07T19:21:45;97993.03;;;16.33;68.71
44385;BME280;30101;32.778;34.994;2022-12-07T19:26:49;97992.69;;;16.29;68.83
44385;BME280;30101;32.778;34.994;2022-12-07T19:31:53;97985.59;;;16.23;68.84
44385;BME280;30101;32.778;34.994;2022-12-07T19:36:57;97985.47;;;16.18;68.50
44385;BME280;30101;32.778;34.994;2022-12-07T19:42:01;97994.28;;;16.13;68.60
44385;BME280;30101;32.778;34.994;2022-12-07T19:47:04;97996.84;;;16.08;69.15
44385;BME280;30101;32.778;34.994;2022-12-07T19:52:09;97987.28;;;16.01;68.96
44385;BME280;30101;32.778;34.994;2022-12-07T19:57:13;97995.72;;;16.04;68.65
44385;BME280;30101;32.778;34.994;2022-12-07T20:02:17;97999.22;;;16.05;68.56
44385;BME280;30101;32.778;34.994;2022-12-07T20:07:22;98002.75;;;16.05;68.62
44385;BME280;30101;32.778;34.994;2022-12-07T20:12:26;98007.63;;;16.08;68.41
44385;BME280;30101;32.778;34.994;2022-12-07T20:17:29;98010.09;;;16.10;68.82
44385;BME280;30101;32.778;34.994;2022-12-07T20:22:32;98017.59;;;16.08;69.03
44385;BME280;30101;32.778;34.994;2022-12-07T20:27:37;98016.66;;;16.02;68.95
44385;BME280;30101;32.778;34.994;2022-12-07T20:32:41;98014.34;;;15.94;69.36
44385;BME280;30101;32.778;34.994;2022-12-07T20:37:44;98021.50;;;15.88;69.23
44385;BME280;30101;32.778;34.994;2022-12-07T20:42:47;98016.63;;;15.85;69.42
44385;BME280;30101;32.778;34.994;2022-12-07T20:47:51;98030.53;;;15.82;69.88
44385;BME280;30101;32.778;34.994;2022-12-07T20:52:54;98034.78;;;15.78;69.77
44385;BME280;30101;32.778;34.994;2022-12-07T20:58:02;98028.31;;;15.79;70.21
44385;BME280;30101;32.778;34.994;2022-12-07T21:03:06;98027.72;;;15.77;70.26
44385;BME280;30101;32.778;34.994;2022-12-07T21:08:09;98029.28;;;15.73;70.59
44385;BME280;30101;32.778;34.994;2022-12-07T21:13:14;98022.25;;;15.72;71.03
44385;BME280;30101;32.778;34.994;2022-12-07T21:18:17;98033.59;;;15.74;71.28
44385;BME280;30101;32.778;34.994;2022-12-07T21:23:21;98032.28;;;15.77;70.85
44385;BME280;30101;32.778;34.994;2022-12-07T21:28:26;98029.03;;;15.75;71.40
44385;BME280;30101;32.778;34.994;2022-12-07T21:33:33;98033.59;;;15.74;71.65
44385;BME280;30101;32.778;34.994;2022-12-07T21:38:37;98041.09;;;15.72;71.27
44385;BME280;30101;32.778;34.994;2022-12-07T21:43:41;98034.78;;;15.67;71.89
44385;BME280;30101;32.778;34.994;2022-12-07T21:48:49;98040.63;;;15.63;71.75
44385;BME280;30101;32.778;34.994;2022-12-07T21:53:55;98035.47;;;15.62;71.99
44385;BME280;30101;32.778;34.994;2022-12-07T21:59:06;98046.25;;;15.62;72.02
44385;BME280;30101;32.778;34.994;2022-12-07T22:04:21;98053.88;;;15.65;72.19
44385;BME280;30101;32.778;34.994;2022-12-07T22:09:25;98048.47;;;15.65;72.14
44385;BME280;30101;32.778;34.994;2022-12-07T22:14:28;98053.38;;;15.68;72.21
44385;BME280;30101;32.778;34.994;2022-12-07T22:19:33;98055.38;;;15.73;72.51
44385;BME280;30101;32.778;34.994;2022-12-07T22:24:36;98048.38;;;15.72;72.49
44385;BME280;30101;32.778;34.994;2022-12-07T22:29:40;98057.25;;;15.72;72.21
44385;BME280;30101;32.778;34.994;2022-12-07T22:34:45;98058.41;;;15.64;72.77
44385;BME280;30101;32.778;34.994;2022-12-07T22:39:48;98063.66;;;15.59;72.74
44385;BME280;30101;32.778;34.994;2022-12-07T22:44:52;98066.47;;;15.53;72.72
44385;BME280;30101;32.778;34.994;2022-12-07T22:49:55;98062.84;;;15.47;73.04
44385;BME280;30101;32.778;34.994;2022-12-07T22:54:59;98067.88;;;15.44;73.30
44385;BME280;30101;32.778;34.994;2022-12-07T23:00:05;98068.78;;;15.37;73.13
44385;BME280;30101;32.778;34.994;2022-12-07T23:05:09;98067.50;;;15.28;73.26
44385;BME280;30101;32.778;34.994;2022-12-07T23:10:13;98068.19;;;15.24;73.22
44385;BME280;30101;32.778;34.994;2022-12-07T23:15:17;98068.88;;;15.19;73.39
44385;BME280;30101;32.778;34.994;2022-12-07T23:20:20;98060.47;;;15.16;73.64
44385;BME280;30101;32.778;34.994;2022-12-07T23:25:23;98070.41;;;15.15;73.76
44385;BME280;30101;32.778;34.994;2022-12-07T23:30:26;98075.81;;;15.15;73.14
44385;BME280;30101;32.778;34.994;2022-12-07T23:35:29;98079.06;;;15.17;73.46
44385;BME280;30101;32.778;34.994;2022-12-07T23:40:33;98080.47;;;15.20;73.51
44385;BME280;30101;32.778;34.994;2022-12-07T23:45:36;98084.78;;;15.21;73.72
44385;BME280;30101;32.778;34.994;2022-12-07T23:50:41;98082.34;;;15.19;73.80
44385;BME280;30101;32.778;34.994;2022-12-07T23:55:45;98089.00;;;15.17;73.90
